Home   Weather   Italy   Bari   Past weeks
Flag for Italy

Past Weather in Bari, Italy — Yesterday and Last 2 Weeks

Currently: 63 °F. Clear. (Weather station: Bari / Palese Macchie, Italy). See more current weather

Past Weather in Bari — Graph

°F

Bari Temperature Yesterday

Maximum temperature yesterday: 75 °F (at 1:50 pm)
Minimum temperature yesterday: 59 °F (at 4:20 am)
Average temperature yesterday: 66 °F

High & Low Weather Summary for the Past Weeks

 TemperatureHumidityPressure
High82 °F (May 6, 4:20 pm)100% (May 9, 3:20 am)30.07 "Hg (May 9, 3:20 am)
Low50 °F (May 5, 4:20 am)25% (May 6, 4:20 pm)29.65 "Hg (May 16, 3:20 pm)
Average67 °F68%29.92 "Hg
* Reported May 5 2:20 am — May 20 2:20 am, Bari. Weather by CustomWeather, © 2024

Note: Actual official high and low records may vary slightly from our data, if they occured in-between our weather recording intervals... More about our weather records

Bari Weather History for the Previous 24 Hours

Scroll right to see more
 ConditionsComfort  
Time TempWeatherWind HumidityBarometerVisibility
2:20 am
Mon, May 20
63 °FClear.3 mph100%29.86 "Hg10 mi
1:50 am63 °FClear.2 mph100%29.86 "Hg10 mi
1:20 am64 °FPassing clouds.3 mph94%29.86 "HgN/A
12:50 am64 °FClear.2 mph94%29.86 "Hg10 mi
12:20 am64 °FClear.5 mph100%29.86 "Hg10 mi
11:50 pm
Sun, May 19
66 °FClear.5 mph94%29.86 "Hg10 mi
11:20 pm66 °FPassing clouds.7 mph94%29.86 "HgN/A
10:50 pm66 °FPassing clouds.3 mph94%29.86 "Hg6 mi
10:20 pm66 °FPassing clouds.2 mph94%29.86 "Hg5 mi
9:50 pm66 °FPassing clouds.2 mph94%29.86 "Hg5 mi
9:20 pm66 °FPassing clouds.2 mph94%29.86 "Hg5 mi
8:50 pm66 °FPassing clouds.1 mph94%29.86 "Hg4 mi
8:20 pm66 °FPassing clouds.3 mph94%29.83 "Hg4 mi
7:50 pm66 °FScattered clouds.3 mph94%29.83 "Hg4 mi
7:20 pm66 °FThunderstorms. Scattered clouds.3 mph100%29.83 "Hg5 mi
6:50 pm66 °FThunderstorms. Partly sunny.6 mph100%29.86 "Hg2 mi
6:20 pm68 °FThunderstorms. Partly sunny.7 mph94%29.86 "Hg1 mi
5:50 pm68 °FThundershowers. Scattered clouds.5 mph94%29.83 "Hg6 mi
5:20 pm68 °FLight rain. Scattered clouds.8 mph94%29.83 "Hg4 mi
4:50 pm68 °FRain. Scattered clouds.15 mph94%29.80 "Hg2 mi
4:20 pm70 °FPassing clouds.8 mph83%29.86 "Hg6 mi
3:20 pm72 °FClear.10 mph78%29.86 "Hg6 mi
2:50 pm73 °FSunny.10 mph69%29.86 "Hg10 mi
1:50 pm75 °FSunny.10 mph65%29.89 "Hg10 mi
1:20 pm73 °FSunny.9 mph69%29.89 "Hg10 mi
12:50 pm73 °FPassing clouds.10 mph74%29.89 "HgN/A
12:20 pm72 °FPassing clouds.12 mph73%29.89 "HgN/A
11:50 am72 °FPassing clouds.9 mph73%29.92 "HgN/A
11:20 am72 °FPassing clouds.7 mph73%29.92 "HgN/A
10:50 am70 °FPassing clouds.6 mph78%29.92 "HgN/A
10:20 am70 °FPassing clouds.6 mph78%29.92 "HgN/A
9:50 am70 °FPassing clouds.3 mph78%29.92 "HgN/A
9:20 am70 °FPassing clouds.3 mph78%29.92 "HgN/A
8:50 am68 °FPassing clouds.2 mph83%29.92 "HgN/A
8:20 am66 °FPassing clouds.2 mph88%29.92 "Hg5 mi
7:50 am64 °FFog.6 mph94%29.92 "Hg3 mi
7:20 am63 °FFog.5 mph100%29.89 "Hg1 mi
6:50 am63 °FFog.6 mph94%29.89 "Hg1 mi
6:20 am61 °FScattered clouds.5 mph100%29.89 "Hg4 mi
5:50 am59 °FSunny.3 mph100%29.89 "Hg3 mi
5:20 am59 °FClear.5 mph94%29.86 "Hg3 mi
4:50 am59 °FClear.3 mph94%29.86 "Hg3 mi
4:20 am59 °FClear.1 mph100%29.86 "Hg3 mi
3:50 am61 °FClear.1 mph94%29.86 "Hg1 mi
3:20 am61 °FClear.1 mph94%29.86 "Hg3 mi
Weather by CustomWeather, © 2024

See weather overview